Logs

Todo sobre....
Avatar de Usuario
Naval
Mensajes: 92
Registrado: 31 May 2020 12:21
Ubicación: JN38WI
Agradecido : 1 vez
Agradecimiento recibido: 62 veces

Logs

Mensaje por Naval »

Hola a todos,

aquí algunos registros más la nota NOTAM con la traducción del mensaje.

73 Josef

12586.0 UDK: Murmansk Radio RUS, Sitor B, Navigational Warnings, (14JUNE20 1300) (Josef)

8977 kHz ARINC Reykjavik
HACARS mode: 2 Aircraft reg: .N896FD
Message label: RA Block id: K [Uplink]\par
Message content:-\
QUMEMXRFX~1\'07(1243)<GOCC> ETOPS WX & NOTAMS: . TAF CYYR 150530Z 1506/1606 23005KT P6SM FEW250 FM151100 23010KT P6SM SCT200 . TAF EIDW 150500Z 1506/1606 VRB03KT 9999 FEW030 PROB30 TEMPO 1506/1507 4000 BR BECM\
----------------------------------------------------------[15/06/2020 06:14]\
*Relación de NOTAMS véase el anexo "NOTAM_15062020_8977 kHz

HACARS mode: 2 Aircraft reg: .N896FD\par
Message label: RA Block id: L [Uplink]\par
Message content:-\par
G 1509/1511 13005KT . NO CHANGES TO NOTAMS STBY FOR ETOPS OK MSG. KELLY/GOC \par
----------------------------------------------------------[15/06/2020 06:15]\par

10081 kHz ARINC Shannon
HACARS mode: 2 Aircraft reg: .VQ-BTX\par
Message label: RA Block id: H [Uplink]\par
Message content:-\par
QUMOWFPSU~1DIS01150535 WXR MESSAGE /RQ ** PART 01 OF 01 ** UUEE -SVO - MOSCOW/SHEREMETYEVO METAR 150500Z 11005MPS CAVOK 17/09 Q1022 R06R/CLRD62 NOSIG. UUYY -SCW - SYKTYVKAR METAR 150500Z 27002MPS 200V330 \par
----------------------------------------------------------[15/06/2020 06:25]\par

HACARS mode: 2 Aircraft reg: .VQ-BTX\par
Message label: RA Block id: J [Uplink]\par
Message content:-\par
CAVOK 21/09 Q1023 R18/61D NOSIG RMK QFE759/1012. USPP -PEE - PERM/BOLSHOYE SAVINO METAR 150500Z 28003MPS 240V330 CAVOK 18/10 Q1024 R21/090060 NOSIG RMK QFE757. UWGG -GOJ - NIZHNY NOVGOROD METAR 150500Z \par
----------------------------------------------------------[15/06/2020 06:29]\par

HACARS mode: 2 Aircraft reg: .VQ-BTX\par
Message label: RA Block id: P [Uplink]\par
Message content:-\par
QUMOWFPSU~1DIS01150606 WXR MESSAGE /RQ ** PART 01 OF 01 ** UUEE -SVO - MOSCOW/SHEREMETYEVO METAR 150530Z 10004MPS CAVOK 18/10 Q1023 R06R/CLRD62 NOSIG. UUYY -SCW - SYKTYVKAR METAR 150530Z 26003MPS 180V300 \par
----------------------------------------------------------[15/06/2020 06:33]\par

HACARS mode: 2 Aircraft reg: .VQ-BTT\par
Message label: C1 Block id: C [Uplink]\par
Message content:-\par
.MOWASSU 150708 AGM AN VQ-BTT/FI SU1651/GL H07/MA 008I - YOUR MESSAGE ACCEPTED FLIGHT SU1651 TERMINAL B STAND 116 RUNWAY \par
----------------------------------------------------------[15/06/2020 07:13]\par

HACARS mode: 2 Aircraft reg: .VQ-BQZ\par
Message label: C1 Block id: U [Uplink]\par
Message content:-\par
.MOWASSU 150733 AGM AN VQ-BQZ/FI SU1701/GL H07/MA 031I - ATTN RUNWAY OR STAND CHANGED FLIGHT SU1701 TERMINAL B STAND 123A RUNWAY \par
----------------------------------------------------------[15/06/2020 07:34]\par
No tiene los permisos requeridos para ver los archivos adjuntos a este mensaje.



Responder